createdAt,value
2018-07-06T00:00:09.397Z,73.85
2018-07-06T00:01:19.469Z,73.95
2018-07-06T00:02:29.539Z,73.95
2018-07-06T00:03:39.615Z,74.14
2018-07-06T00:04:49.436Z,73.85
2018-07-06T00:05:59.248Z,73.57
2018-07-06T00:07:09.063Z,74.05
2018-07-06T00:08:18.877Z,74.05
2018-07-06T00:09:28.678Z,73.95
2018-07-06T00:10:38.760Z,73.57
2018-07-06T00:11:48.832Z,74.14
2018-07-06T00:12:58.905Z,73.75
2018-07-06T00:14:08.999Z,73.99
2018-07-06T00:15:19.096Z,73.57
2018-07-06T00:16:29.223Z,74.14
2018-07-06T00:17:39.295Z,74.27
2018-07-06T00:18:49.098Z,74.24
2018-07-06T00:19:59.205Z,74.37
2018-07-06T00:21:09.321Z,74.08
2018-07-06T00:22:19.383Z,73.89
2018-07-06T00:23:29.448Z,73.89
2018-07-06T00:24:39.579Z,74.08
2018-07-06T00:25:49.696Z,74.18
2018-07-06T00:26:59.759Z,73.89
2018-07-06T00:28:09.855Z,73.99
2018-07-06T00:29:19.662Z,73.89
2018-07-06T00:30:29.475Z,73.89
2018-07-06T00:31:39.275Z,73.89
2018-07-06T00:32:49.346Z,73.89
2018-07-06T00:33:59.422Z,74.08
2018-07-06T00:35:09.490Z,74.12
2018-07-06T00:36:19.033Z,74.08
2018-07-06T00:37:29.119Z,73.89
2018-07-06T00:38:39.202Z,74.08
2018-07-06T00:39:49.272Z,74.18
2018-07-06T00:40:59.334Z,73.83
2018-07-06T00:42:09.166Z,73.79
2018-07-06T00:43:19.259Z,73.73
2018-07-06T00:44:29.338Z,73.83
2018-07-06T00:45:39.415Z,74.12
2018-07-06T00:46:49.243Z,73.73
2018-07-06T00:47:59.309Z,74.02
2018-07-06T00:49:09.106Z,73.73
2018-07-06T00:50:18.646Z,73.83
2018-07-06T00:51:28.270Z,73.93
2018-07-06T00:52:38.343Z,73.93
2018-07-06T00:53:48.407Z,73.93
2018-07-06T00:54:58.212Z,73.93
2018-07-06T00:56:08.010Z,73.93
2018-07-06T00:57:18.071Z,73.93
2018-07-06T00:58:28.140Z,74.12
2018-07-06T00:59:38.212Z,74.51
2018-07-06T01:00:48.284Z,74.6
2018-07-06T01:01:58.516Z,74.6
2018-07-06T01:03:08.828Z,74.41
2018-07-06T01:04:18.391Z,74.12
2018-07-06T01:05:28.471Z,73.93
2018-07-06T01:06:38.532Z,73.73
2018-07-06T01:07:48.079Z,73.83
2018-07-06T01:08:58.143Z,73.73
2018-07-06T01:10:08.236Z,73.83
2018-07-06T01:11:18.559Z,73.83
2018-07-06T01:12:28.371Z,74.02
2018-07-06T01:13:38.426Z,73.93
2018-07-06T01:14:48.520Z,73.86
2018-07-06T01:15:58.321Z,73.83
2018-07-06T01:17:08.141Z,73.86
2018-07-06T01:18:18.219Z,73.96
2018-07-06T01:19:28.311Z,73.96
2018-07-06T01:20:38.116Z,74.51
2018-07-06T01:21:48.198Z,74.51
2018-07-06T01:22:57.733Z,74.41
2018-07-06T01:24:07.789Z,74.54
2018-07-06T01:25:17.869Z,74.44
2018-07-06T01:26:27.685Z,74.54
2018-07-06T01:27:37.746Z,74.35
2018-07-06T01:28:47.543Z,74.54
2018-07-06T01:29:57.627Z,74.54
2018-07-06T01:31:07.445Z,74.35
2018-07-06T01:32:17.276Z,74.54
2018-07-06T01:33:27.362Z,74.54
2018-07-06T01:34:37.154Z,74.64
2018-07-06T01:35:47.257Z,74.44
2018-07-06T01:36:57.334Z,74.54
2018-07-06T01:38:07.464Z,74.35
2018-07-06T01:39:17.532Z,74.54
2018-07-06T01:40:27.598Z,74.54
2018-07-06T01:41:37.403Z,74.93
2018-07-06T01:42:47.206Z,74.93
2018-07-06T01:43:57.073Z,74.54
2018-07-06T01:45:06.889Z,74.44
2018-07-06T01:46:16.970Z,74.54
2018-07-06T01:47:27.041Z,74.25
2018-07-06T01:48:36.861Z,75.02
2018-07-06T01:49:46.683Z,74.54
2018-07-06T01:50:56.542Z,74.83
2018-07-06T01:52:06.605Z,75.12
2018-07-06T01:53:16.666Z,75.12
2018-07-06T01:54:26.463Z,74.31
2018-07-06T01:55:36.324Z,74.83
2018-07-06T01:56:46.152Z,75.09
2018-07-06T01:57:55.965Z,74.93
2018-07-06T01:59:05.770Z,75.12
2018-07-06T02:00:15.853Z,74.73
2018-07-06T02:01:25.914Z,74.93
2018-07-06T02:02:36.211Z,75.12
2018-07-06T02:03:46.300Z,75.12
2018-07-06T02:04:56.407Z,75.02
2018-07-06T02:06:06.473Z,74.69
2018-07-06T02:07:16.387Z,74.93
2018-07-06T02:08:26.469Z,75.12
2018-07-06T02:09:36.535Z,74.89
2018-07-06T02:10:46.355Z,74.83
2018-07-06T02:11:56.431Z,74.93
2018-07-06T02:13:06.545Z,75.12
2018-07-06T02:14:16.610Z,74.54
2018-07-06T02:15:26.687Z,75.12
2018-07-06T02:16:36.745Z,74.83
2018-07-06T02:17:46.801Z,74.73
2018-07-06T02:18:57.118Z,74.93
2018-07-06T02:20:06.923Z,74.73
2018-07-06T02:21:16.739Z,74.83
2018-07-06T02:22:26.560Z,74.93
2018-07-06T02:23:36.618Z,74.64
2018-07-06T02:24:46.161Z,74.93
2018-07-06T02:25:56.239Z,74.64
2018-07-06T02:27:06.329Z,74.54
2018-07-06T02:28:16.389Z,74.93
2018-07-06T02:29:26.471Z,74.73
2018-07-06T02:30:36.598Z,74.93
2018-07-06T02:31:46.690Z,74.64
2018-07-06T02:32:56.772Z,74.93
2018-07-06T02:34:06.885Z,74.73
2018-07-06T02:35:16.701Z,74.73
2018-07-06T02:36:26.796Z,74.64
2018-07-06T02:37:36.872Z,74.73
2018-07-06T02:38:46.940Z,74.83
2018-07-06T02:39:56.751Z,74.93
2018-07-06T02:41:06.572Z,74.93
2018-07-06T02:42:16.645Z,74.73
2018-07-06T02:43:26.751Z,74.73
2018-07-06T02:44:36.562Z,74.64
2018-07-06T02:45:46.631Z,75.02
2018-07-06T02:46:56.451Z,74.64
2018-07-06T02:48:06.618Z,75.02
2018-07-06T02:49:16.703Z,74.73
2018-07-06T02:50:26.791Z,75.12
2018-07-06T02:51:36.859Z,75.12
2018-07-06T02:52:46.948Z,74.93
2018-07-06T02:53:57.081Z,75.02
2018-07-06T02:55:07.279Z,74.73
2018-07-06T02:56:17.273Z,74.77
2018-07-06T02:57:27.355Z,75.16
2018-07-06T02:58:37.428Z,74.73
2018-07-06T02:59:47.286Z,75.12
2018-07-06T03:00:57.374Z,74.87
2018-07-06T03:02:07.456Z,75.02
2018-07-06T03:03:17.531Z,75.16
2018-07-06T03:35:53.341Z,69.32
2018-07-06T03:37:03.387Z,69.67
2018-07-06T03:38:13.191Z,70.35
2018-07-06T03:39:22.993Z,71.06
2018-07-06T03:40:32.561Z,72.02
2018-07-06T03:41:42.670Z,71.83
2018-07-06T03:42:52.744Z,72.89
2018-07-06T03:44:02.814Z,72.99
2018-07-06T03:45:12.888Z,73.08
2018-07-06T03:46:22.960Z,73.79
2018-07-06T03:47:32.545Z,73.89
2018-07-06T03:48:42.631Z,73.31
2018-07-06T03:49:52.697Z,74.27
2018-07-06T03:51:02.507Z,73.25
2018-07-06T03:52:12.305Z,74.02
2018-07-06T03:53:22.381Z,73.83
2018-07-06T03:54:32.465Z,74.35
2018-07-06T03:55:42.280Z,74.06
2018-07-06T03:56:52.366Z,74.44
2018-07-06T03:58:02.441Z,74.35
2018-07-06T03:59:12.253Z,74.38
2018-07-06T04:00:22.338Z,74.38
2018-07-06T04:01:32.429Z,74.19
2018-07-06T04:02:42.516Z,73.9
2018-07-06T04:03:52.602Z,74.48
2018-07-06T04:05:02.742Z,73.52
2018-07-06T04:06:12.823Z,73.74
2018-07-06T04:07:22.891Z,73.65
2018-07-06T04:08:32.963Z,73.84
2018-07-06T04:09:43.064Z,73.55
2018-07-06T04:10:53.150Z,73.65
2018-07-06T04:12:03.223Z,73.94
2018-07-06T04:13:13.291Z,73.94
2018-07-06T04:14:23.367Z,73.78
2018-07-06T04:15:33.177Z,73.3
2018-07-06T04:16:43.249Z,73.78
2018-07-06T04:17:52.801Z,73.68
2018-07-06T04:19:02.643Z,73.78
2018-07-06T04:20:12.750Z,73.59
2018-07-06T04:21:22.828Z,73.49
2018-07-06T04:22:32.929Z,73.72
2018-07-06T04:23:42.470Z,73.53
2018-07-06T04:24:52.536Z,73.82
2018-07-06T04:26:02.604Z,73.91
2018-07-06T04:27:12.691Z,74.11
2018-07-06T04:28:22.768Z,74.11
2018-07-06T04:29:32.568Z,74.01
2018-07-06T04:30:42.634Z,74.11
2018-07-06T04:31:52.695Z,74.11
2018-07-06T04:33:02.789Z,74.21
2018-07-06T04:34:12.882Z,74.01
2018-07-06T04:35:22.952Z,74.3
2018-07-06T04:36:33.054Z,73.24
2018-07-06T04:37:43.115Z,73.33
2018-07-06T04:38:53.180Z,73.43
2018-07-06T04:40:03.249Z,73.72
2018-07-06T04:41:13.331Z,73.72
2018-07-06T04:42:23.423Z,73.63
2018-07-06T04:43:33.497Z,73.85
2018-07-06T04:44:43.313Z,73.18
2018-07-06T04:45:52.870Z,73.57
2018-07-06T04:47:02.674Z,73.27
2018-07-06T04:48:12.494Z,73.27
2018-07-06T04:49:22.288Z,73.47
2018-07-06T04:50:32.416Z,72.92
2018-07-06T04:51:42.485Z,73.11
2018-07-06T04:52:52.317Z,73.11
2018-07-06T04:54:02.400Z,72.92
2018-07-06T04:55:12.482Z,73.11
2018-07-06T04:56:22.560Z,73.21
2018-07-06T04:57:32.640Z,73.15
2018-07-06T04:58:42.760Z,72.67
2018-07-06T04:59:53.063Z,72.86
2018-07-06T05:01:03.406Z,72.86
2018-07-06T05:02:13.501Z,73.05
2018-07-06T05:03:23.571Z,73.25
2018-07-06T05:04:33.669Z,73.19
2018-07-06T05:05:43.752Z,72.51
2018-07-06T05:06:53.565Z,72.41
2018-07-06T05:08:03.639Z,72.12
2018-07-06T05:09:13.722Z,72.41
2018-07-06T05:10:23.788Z,72.35
2018-07-06T05:11:33.880Z,72.55
2018-07-06T05:12:43.956Z,72.45
2018-07-06T05:13:54.038Z,72.16
2018-07-06T05:15:04.134Z,72
2018-07-06T05:16:13.953Z,72
2018-07-06T05:17:24.064Z,72.09
2018-07-06T05:18:33.864Z,71.9
2018-07-06T05:19:43.677Z,72.19
2018-07-06T05:20:53.483Z,72.19
2018-07-06T05:22:03.551Z,72.09
2018-07-06T05:23:13.112Z,71.9
2018-07-06T05:24:23.199Z,72.19
2018-07-06T05:25:33.022Z,72.19
2018-07-06T05:26:43.152Z,72.09
2018-07-06T05:27:52.962Z,72
2018-07-06T05:29:02.761Z,72.13
2018-07-06T05:30:12.844Z,71.84
2018-07-06T05:31:22.654Z,71.45
2018-07-06T05:32:32.767Z,71.68
2018-07-06T05:33:42.835Z,71.58
2018-07-06T05:34:52.639Z,71.48
2018-07-06T05:36:02.469Z,71.48
2018-07-06T05:37:12.545Z,70.94
2018-07-06T05:38:22.634Z,70.75
2018-07-06T05:39:32.756Z,70.94
2018-07-06T05:40:42.836Z,70.49
2018-07-06T05:41:52.915Z,69.74
2018-07-06T05:43:03.005Z,69.2
2018-07-06T05:44:13.077Z,68.19
2018-07-06T05:45:23.144Z,68.52
2018-07-06T05:46:33.231Z,67.86
2018-07-06T05:47:43.050Z,68.19
2018-07-06T05:48:53.158Z,67.93
2018-07-06T05:50:03.238Z,67.68
2018-07-06T05:51:13.300Z,67.61
2018-07-06T05:52:23.355Z,67.87
2018-07-06T05:53:33.181Z,68.39
2018-07-06T05:54:43.267Z,67.9
2018-07-06T05:55:53.370Z,68
2018-07-06T05:57:03.448Z,68.1
2018-07-06T05:58:13.533Z,68.78
2018-07-06T05:59:23.732Z,69.2
2018-07-06T06:00:33.825Z,70.14
2018-07-06T06:01:43.389Z,70.21
2018-07-06T06:02:53.462Z,70.6
2018-07-06T06:04:03.544Z,70.47
2018-07-06T06:05:13.616Z,70.56
2018-07-06T06:06:23.747Z,70.62
2018-07-06T06:07:33.582Z,70.92
2018-07-06T06:08:43.669Z,70.82
2018-07-06T06:09:53.485Z,71.11
2018-07-06T06:11:03.563Z,71.17
2018-07-06T06:12:13.446Z,71.08
2018-07-06T06:13:23.715Z,71.76
2018-07-06T06:14:33.796Z,71.43
2018-07-06T06:15:43.880Z,71.62
2018-07-06T06:16:53.692Z,71.59
2018-07-06T06:18:03.503Z,71.3
2018-07-06T06:19:13.317Z,71.5
2018-07-06T06:20:23.410Z,71.56
2018-07-06T06:21:33.493Z,71.85
2018-07-06T06:22:43.557Z,71.36
2018-07-06T06:23:53.620Z,71.11
2018-07-06T06:25:03.714Z,70.95
2018-07-06T06:26:13.822Z,70.65
2018-07-06T06:27:23.904Z,69.87
2018-07-06T06:28:33.986Z,69.81
2018-07-06T06:29:43.806Z,70.01
2018-07-06T06:30:53.979Z,70.5
2018-07-06T06:32:03.813Z,70.2
2018-07-06T06:33:13.982Z,70.3
2018-07-06T06:34:24.191Z,70.4
2018-07-06T06:35:34.267Z,70.68
2018-07-06T06:36:44.127Z,70.78
2018-07-06T06:37:54.213Z,71.04
2018-07-06T06:39:04.322Z,70.85
2018-07-06T06:40:14.412Z,71.04
2018-07-06T06:41:24.237Z,70.85
2018-07-06T06:42:34.325Z,70.95
2018-07-06T06:43:44.405Z,70.95
2018-07-06T06:44:54.766Z,70.85
2018-07-06T06:46:04.890Z,71.33
2018-07-06T06:47:14.992Z,71.04
2018-07-06T06:48:25.153Z,71.04
2018-07-06T06:49:35.007Z,71.04
2018-07-06T06:50:45.210Z,71.04
2018-07-06T06:51:55.545Z,71.04
2018-07-06T06:53:05.819Z,71.04
2018-07-06T06:54:16.204Z,70.95
2018-07-06T06:55:26.319Z,71.11
2018-07-06T06:56:35.907Z,71.33
2018-07-06T06:57:45.977Z,71.04
2018-07-06T06:58:55.581Z,71.33
2018-07-06T07:00:05.267Z,70.85
2018-07-06T07:01:15.434Z,70.85
2018-07-06T07:02:25.511Z,70.85
2018-07-06T07:03:35.602Z,70.85
2018-07-06T07:04:45.439Z,70.85
2018-07-06T07:05:55.250Z,70.65
2018-07-06T07:07:05.078Z,70.26
2018-07-06T07:08:14.907Z,70.07
2018-07-06T07:09:25.039Z,70.59
2018-07-06T07:10:35.119Z,70.2
2018-07-06T07:11:44.949Z,69.91
2018-07-06T07:12:55.028Z,70.2
2018-07-06T07:14:05.254Z,70.5
2018-07-06T07:15:15.533Z,70.59
2018-07-06T07:16:25.649Z,71.08
2018-07-06T07:17:35.751Z,70.88
2018-07-06T07:18:45.825Z,70.59
2018-07-06T07:19:55.911Z,70.98
2018-07-06T07:21:05.731Z,70.98
2018-07-06T07:22:15.293Z,70.98
2018-07-06T07:23:25.104Z,71.27
2018-07-06T07:24:34.912Z,71.33
2018-07-06T07:25:45.051Z,70.95
2018-07-06T07:26:54.878Z,70.85
2018-07-06T07:28:04.441Z,71.14
2018-07-06T07:29:14.545Z,71.33
2018-07-06T07:30:24.397Z,71.33
2018-07-06T07:31:34.547Z,70.72
2018-07-06T07:32:44.668Z,70.91
2018-07-06T07:33:54.756Z,71.14
2018-07-06T07:35:04.843Z,70.85
2018-07-06T07:36:14.939Z,70.56
2018-07-06T07:37:24.778Z,69.87
2018-07-06T07:38:34.881Z,70.3
2018-07-06T07:39:44.445Z,70.4
2018-07-06T07:40:54.530Z,70.1
2018-07-06T07:42:04.632Z,70.2
2018-07-06T07:43:14.509Z,70.4
2018-07-06T07:44:24.340Z,70.4
2018-07-06T07:45:34.438Z,70.1
2018-07-06T07:46:44.536Z,70.59
2018-07-06T07:47:54.358Z,70.14
2018-07-06T07:49:04.199Z,70.4
2018-07-06T07:50:14.317Z,70.43
2018-07-06T07:51:24.136Z,70.14
2018-07-06T07:52:34.221Z,69.84
2018-07-06T07:53:44.361Z,69.84
2018-07-06T07:54:54.437Z,69.94
2018-07-06T07:56:04.599Z,69.68
2018-07-06T07:57:14.395Z,69.78
2018-07-06T07:58:24.601Z,69.68
2018-07-06T07:59:34.702Z,69.82
2018-07-06T08:00:45.207Z,69.04
2018-07-06T08:01:56.349Z,68.68
2018-07-06T08:03:06.507Z,69.07
2018-07-06T08:04:16.611Z,68.87
2018-07-06T08:05:26.710Z,68.91
2018-07-06T08:06:36.680Z,69.01
2018-07-06T08:07:46.997Z,69.2
2018-07-06T08:08:57.084Z,69.24
2018-07-06T08:10:07.408Z,69.24
2018-07-06T08:11:17.239Z,69.43
2018-07-06T08:12:27.327Z,69.43
2018-07-06T08:13:37.413Z,69.24
2018-07-06T08:14:47.233Z,69.46
2018-07-06T08:15:57.314Z,69.04
2018-07-06T08:17:07.399Z,69.17
2018-07-06T08:18:17.568Z,69.27
2018-07-06T08:19:27.510Z,69.56
2018-07-06T08:20:37.352Z,69.63
2018-07-06T08:21:47.438Z,69.92
2018-07-06T08:22:57.265Z,70.08
2018-07-06T08:24:07.556Z,70.57
2018-07-06T08:25:17.385Z,70.43
2018-07-06T08:26:27.477Z,71.02
2018-07-06T08:27:37.557Z,70.63
2018-07-06T08:28:47.647Z,70.73
2018-07-06T08:29:57.454Z,71.08
2018-07-06T08:31:07.535Z,70.89
2018-07-06T08:32:17.354Z,70.86
2018-07-06T08:33:27.185Z,70.86
2018-07-06T08:34:37.498Z,70.66
2018-07-06T08:35:47.705Z,71.05
2018-07-06T08:36:57.789Z,70.86
2018-07-06T08:38:07.619Z,71.15
2018-07-06T08:39:17.439Z,70.17
2018-07-06T08:40:27.535Z,70.37
2018-07-06T08:41:37.622Z,70.17
2018-07-06T08:42:47.693Z,70.07
2018-07-06T08:43:57.794Z,69.78
2018-07-06T08:45:07.632Z,69.49
2018-07-06T08:46:17.723Z,69.53
2018-07-06T08:47:27.804Z,68.65
2018-07-06T08:48:37.881Z,68.94
2018-07-06T08:49:47.957Z,68.97
2018-07-06T08:50:58.070Z,69.17
2018-07-06T08:52:08.165Z,69.07
2018-07-06T08:53:18.333Z,69.26
2018-07-06T08:54:28.212Z,69.07
2018-07-06T08:55:38.318Z,69.07
2018-07-06T08:56:48.157Z,68.77
2018-07-06T08:57:58.245Z,68.87
2018-07-06T08:59:08.544Z,69.17
2018-07-06T09:00:18.104Z,69.56
2018-07-06T09:01:28.210Z,69.56
2018-07-06T09:02:38.311Z,69.75
2018-07-06T09:03:48.471Z,69.23
2018-07-06T09:04:58.302Z,69.33
2018-07-06T09:06:08.398Z,69.72
2018-07-06T09:07:18.478Z,69.68
2018-07-06T09:08:28.562Z,69.59
2018-07-06T09:09:38.402Z,69.68
2018-07-06T09:10:48.882Z,69.68
2018-07-06T09:11:58.438Z,70.07
2018-07-06T09:13:08.670Z,70.04
2018-07-06T09:14:18.679Z,70.23
2018-07-06T09:15:28.901Z,70.23
2018-07-06T09:16:38.731Z,69.94
2018-07-06T09:17:48.897Z,70.62
2018-07-06T09:18:58.858Z,70.33
2018-07-06T09:20:09.351Z,70.43
2018-07-06T09:21:19.866Z,70.5
2018-07-06T09:22:30.039Z,70.4
2018-07-06T09:23:40.115Z,70.5
2018-07-06T09:24:49.694Z,70.4
2018-07-06T09:26:00.748Z,70.2
2018-07-06T09:27:13.173Z,70.59
2018-07-06T09:28:23.503Z,70.59
2018-07-06T09:29:33.449Z,70.68
2018-07-06T09:30:43.513Z,70.68
2018-07-06T09:31:53.596Z,70.59
2018-07-06T09:33:03.499Z,70.46
2018-07-06T09:34:13.615Z,70.26
2018-07-06T09:35:23.776Z,70.17
2018-07-06T09:36:33.497Z,70.56
2018-07-06T09:37:43.583Z,70.46
2018-07-06T09:38:53.677Z,70.72
2018-07-06T09:40:03.830Z,71.01
2018-07-06T09:41:13.929Z,71.07
2018-07-06T09:42:24.046Z,71.26
2018-07-06T09:43:33.884Z,70.68
2018-07-06T09:44:43.995Z,71.17
2018-07-06T09:45:54.104Z,71.72
2018-07-06T09:47:03.951Z,71.42
2018-07-06T09:48:14.053Z,71.42
2018-07-06T09:49:24.143Z,71.52
2018-07-06T09:50:34.240Z,71.68
2018-07-06T09:51:44.097Z,71.58
2018-07-06T09:52:54.060Z,72.17
2018-07-06T09:54:04.164Z,72.23
2018-07-06T09:55:13.993Z,72.03
2018-07-06T09:56:23.817Z,72.42
2018-07-06T09:57:33.664Z,72.29
2018-07-06T09:58:43.744Z,72.19
2018-07-06T09:59:53.564Z,71.7
2018-07-06T10:01:03.391Z,72.19
2018-07-06T10:02:13.498Z,72.19
2018-07-06T10:03:23.313Z,72.09
2018-07-06T10:04:33.421Z,72.09
2018-07-06T10:05:43.665Z,72.25
2018-07-06T10:06:54.043Z,72.06
2018-07-06T10:08:04.157Z,71.96
2018-07-06T10:09:14.491Z,71.86
2018-07-06T10:10:24.588Z,71.86
2018-07-06T10:11:34.882Z,72.09
2018-07-06T10:12:45.123Z,72.09
2018-07-06T10:13:55.198Z,71.7
2018-07-06T10:15:05.309Z,71.32
2018-07-06T10:16:15.485Z,71.42
2018-07-06T10:17:25.816Z,71.8
2018-07-06T10:18:35.901Z,71.32
2018-07-06T10:19:46.020Z,71.32
2018-07-06T10:20:55.963Z,71.32
2018-07-06T10:22:06.046Z,71.22
2018-07-06T10:23:16.151Z,71.32
2018-07-06T10:24:26.241Z,71.7
2018-07-06T10:25:36.340Z,71.51
2018-07-06T10:26:46.530Z,71.42
2018-07-06T10:27:56.622Z,71.03
2018-07-06T10:29:06.470Z,71.42
2018-07-06T10:30:16.557Z,71.48
2018-07-06T10:31:26.413Z,71.58
2018-07-06T10:32:36.532Z,71.48
2018-07-06T10:33:46.657Z,71.28
2018-07-06T10:34:57.064Z,71.19
2018-07-06T10:36:07.172Z,71.28
2018-07-06T10:37:17.028Z,71.58
2018-07-06T10:38:27.156Z,71.12
2018-07-06T10:39:37.273Z,70.54
2018-07-06T10:40:47.452Z,70.83
2018-07-06T10:41:57.545Z,70.93
2018-07-06T10:43:07.622Z,70.64
2018-07-06T10:44:17.710Z,70.29
2018-07-06T10:45:28.036Z,69.93
2018-07-06T10:46:37.955Z,70.12
2018-07-06T10:47:48.308Z,70.06
2018-07-06T10:48:58.422Z,70.45
2018-07-06T10:50:08.542Z,70.45
2018-07-06T10:51:18.384Z,70.29
2018-07-06T10:52:28.471Z,70.58
2018-07-06T10:53:38.532Z,69.9
2018-07-06T10:54:48.625Z,69.9
2018-07-06T10:55:58.726Z,69.84
2018-07-06T10:57:08.827Z,69.55
2018-07-06T10:58:18.646Z,69.45
2018-07-06T10:59:28.620Z,69.68
2018-07-06T11:00:38.944Z,69.65
2018-07-06T11:01:49.064Z,69.68
2018-07-06T11:02:58.887Z,69.78
2018-07-06T11:04:08.960Z,69.39
2018-07-06T11:05:18.783Z,69.48
2018-07-06T11:06:28.871Z,69.87
2018-07-06T11:07:38.964Z,69.58
2018-07-06T11:08:49.132Z,69.97
2018-07-06T11:09:59.439Z,69.52
2018-07-06T11:11:09.272Z,69.32
2018-07-06T11:12:19.362Z,69.42
2018-07-06T11:13:29.440Z,69.23
2018-07-06T11:14:39.555Z,69.03
2018-07-06T11:15:49.630Z,68.97
2018-07-06T11:16:59.713Z,68.45
2018-07-06T11:18:09.803Z,69.17
2018-07-06T11:19:19.623Z,69.07
2018-07-06T11:20:29.741Z,68.77
2018-07-06T11:21:39.563Z,69.46
2018-07-06T11:22:49.665Z,69.65
2018-07-06T11:23:59.499Z,69.75
2018-07-06T11:25:09.463Z,69.26
2018-07-06T11:26:19.471Z,69.26
2018-07-06T11:27:29.547Z,69.46
2018-07-06T11:28:39.659Z,69.36
2018-07-06T11:29:49.757Z,69.65
2018-07-06T11:30:59.837Z,69.42
2018-07-06T11:32:10.079Z,69.52
2018-07-06T11:33:20.388Z,70.01
2018-07-06T11:34:30.488Z,69.91
2018-07-06T11:35:40.586Z,70.4
2018-07-06T11:36:50.678Z,70.4
2018-07-06T11:38:01.079Z,70.3
2018-07-06T11:39:11.884Z,70.4
2018-07-06T11:40:21.751Z,70.59
2018-07-06T11:41:31.855Z,70.1
2018-07-06T11:42:42.172Z,69.91
2018-07-06T11:43:52.310Z,70.01
2018-07-06T11:45:02.323Z,69.81
2018-07-06T11:46:13.014Z,69.32
2018-07-06T11:47:23.108Z,69.71
2018-07-06T11:48:33.213Z,69.62
2018-07-06T11:49:43.321Z,69.52
2018-07-06T11:50:53.420Z,69.91
2018-07-06T11:52:03.524Z,69.75
2018-07-06T11:53:13.631Z,69.65
2018-07-06T11:54:23.481Z,69.94
2018-07-06T11:55:33.604Z,69.94
2018-07-06T11:56:43.712Z,69.84
2018-07-06T11:57:53.817Z,69.65
2018-07-06T11:59:04.006Z,69.84
2018-07-06T12:00:14.109Z,69.56
2018-07-06T12:01:24.234Z,69.68
2018-07-06T12:02:34.079Z,69.88
2018-07-06T12:03:44.161Z,69.2
2018-07-06T12:04:54.006Z,69.2
2018-07-06T12:06:03.559Z,69.68
2018-07-06T12:07:13.655Z,69.43
2018-07-06T12:08:23.818Z,69.04
2018-07-06T12:09:33.928Z,68.87
2018-07-06T12:10:43.995Z,69.17
2018-07-06T12:11:53.851Z,69.07
2018-07-06T12:13:03.970Z,68.91
2018-07-06T12:14:14.061Z,68.71
2018-07-06T12:15:24.285Z,68.42
2018-07-06T12:16:34.547Z,68.75
2018-07-06T12:17:44.649Z,68.75
2018-07-06T12:18:54.797Z,68.78
2018-07-06T12:20:04.881Z,69.07
2018-07-06T12:21:14.995Z,68.78
2018-07-06T12:22:25.114Z,68.39
2018-07-06T12:23:35.222Z,68.62
2018-07-06T12:24:45.328Z,68.82
2018-07-06T12:25:55.431Z,68.71
2018-07-06T12:27:05.521Z,68.82
2018-07-06T12:28:15.631Z,68.91
2018-07-06T12:29:25.483Z,68.82
2018-07-06T12:30:35.590Z,68.52
2018-07-06T12:31:45.696Z,68.46
2018-07-06T12:32:55.804Z,67.9
2018-07-06T12:34:05.900Z,67.8
2018-07-06T12:35:16.008Z,67.54
2018-07-06T12:36:26.307Z,68.13
2018-07-06T12:37:36.816Z,68.07
2018-07-06T12:38:46.942Z,68.26
2018-07-06T12:39:57.242Z,67.77
2018-07-06T12:41:07.112Z,67.77
2018-07-06T12:42:17.417Z,67.8
2018-07-06T12:43:27.548Z,67.71
2018-07-06T12:44:37.659Z,67.71
2018-07-06T12:45:47.756Z,68.33
2018-07-06T12:46:57.846Z,68.23
2018-07-06T12:48:07.953Z,68.16
2018-07-06T12:49:18.049Z,67.87
2018-07-06T12:50:28.136Z,68.26
2018-07-06T12:51:37.944Z,68.26
2018-07-06T12:52:48.060Z,68.16
2018-07-06T12:53:58.164Z,67.87
2018-07-06T12:55:08.238Z,68.01
2018-07-06T12:56:18.068Z,68.01
2018-07-06T12:57:28.163Z,67.91
2018-07-06T12:58:38.327Z,67.91
2018-07-06T12:59:48.706Z,68.33
2018-07-06T13:00:58.601Z,68.43
2018-07-06T13:02:08.684Z,68.33
2018-07-06T13:03:18.792Z,68.13
2018-07-06T13:04:28.880Z,68.04
2018-07-06T13:05:38.979Z,68.33
2018-07-06T13:06:49.059Z,68.43
2018-07-06T13:07:58.871Z,67.94
2018-07-06T13:09:08.688Z,68.52
2018-07-06T13:10:18.982Z,68.33
2018-07-06T13:11:28.843Z,68.33
2018-07-06T13:12:38.945Z,68.07
2018-07-06T13:13:49.079Z,67.77
2018-07-06T13:14:59.178Z,68.95
2018-07-06T13:16:09.018Z,68.37
2018-07-06T13:17:19.124Z,68.66
2018-07-06T13:18:28.971Z,68.76
2018-07-06T13:19:38.793Z,68.82
2018-07-06T13:20:49.023Z,68.66
2018-07-06T13:21:59.308Z,68.52
2018-07-06T13:23:09.684Z,68.46
2018-07-06T13:24:19.800Z,68.56
2018-07-06T13:25:29.889Z,68.56
2018-07-06T13:26:39.980Z,68.76
2018-07-06T13:27:50.097Z,68.46
2018-07-06T13:29:00.200Z,69.05
2018-07-06T13:30:10.634Z,68.76
2018-07-06T13:31:20.736Z,68.92
2018-07-06T13:32:30.821Z,68.82
2018-07-06T13:33:41.109Z,68.73
2018-07-06T13:34:51.489Z,68.63
2018-07-06T13:36:01.576Z,68.92
2018-07-06T13:37:11.160Z,68.95
2018-07-06T13:38:21.267Z,68.82
2018-07-06T13:39:30.845Z,68.95
2018-07-06T13:40:40.961Z,68.85
2018-07-06T13:41:51.239Z,69.05
2018-07-06T13:43:01.064Z,68.95
2018-07-06T13:44:10.616Z,68.95
2018-07-06T13:45:20.706Z,68.76
2018-07-06T13:46:30.795Z,68.95
2018-07-06T13:47:40.756Z,68.73
2018-07-06T13:48:50.839Z,69.41
2018-07-06T13:50:00.934Z,68.92
2018-07-06T13:51:11.017Z,69.12
2018-07-06T13:52:20.838Z,69.12
2018-07-06T13:53:30.934Z,69.02
2018-07-06T13:54:41.028Z,68.79
2018-07-06T13:55:51.103Z,68.59
2018-07-06T13:57:01.208Z,68.59
2018-07-06T13:58:10.769Z,69.18
2018-07-06T13:59:21.369Z,68.59
2018-07-06T14:00:31.893Z,68.59
2018-07-06T14:01:41.737Z,68.66
2018-07-06T14:02:51.842Z,68.66
2018-07-06T14:04:01.971Z,68.56
2018-07-06T14:05:12.139Z,68.76
2018-07-06T14:06:21.957Z,68.76
2018-07-06T14:07:32.085Z,68.66
2018-07-06T14:08:42.179Z,68.76
2018-07-06T14:09:52.306Z,68.56
2018-07-06T14:11:02.402Z,69.15
2018-07-06T14:12:11.963Z,69.02
2018-07-06T14:13:22.065Z,69.21
2018-07-06T14:14:32.142Z,68.82
2018-07-06T14:15:42.272Z,68.43
2018-07-06T14:16:52.357Z,68.4
2018-07-06T14:18:02.454Z,68.59
2018-07-06T14:19:12.533Z,68.59
2018-07-06T14:20:22.356Z,68.49
2018-07-06T14:21:32.177Z,68.79
2018-07-06T14:22:42.464Z,68.59
2018-07-06T14:23:52.630Z,69.34
2018-07-06T14:25:02.767Z,68.95
2018-07-06T14:26:12.067Z,68.75
2018-07-06T14:27:22.136Z,68.95
2018-07-06T14:28:32.213Z,68.26
2018-07-06T14:29:42.294Z,68.46
2018-07-06T14:30:52.114Z,68.75
2018-07-06T14:32:02.208Z,68.55
2018-07-06T14:33:12.055Z,68.55
2018-07-06T14:34:22.132Z,69.24
2018-07-06T14:35:32.223Z,69.15
2018-07-06T14:36:42.101Z,68.65
2018-07-06T14:37:52.177Z,68.36
2018-07-06T14:39:02.263Z,68.75
2018-07-06T14:40:12.101Z,68.55
2018-07-06T14:41:22.189Z,68.95
2018-07-06T14:42:32.026Z,68.52
2018-07-06T14:43:42.115Z,68.26
2018-07-06T14:44:51.949Z,69.01
2018-07-06T14:46:02.050Z,68.91
2018-07-06T14:47:12.259Z,68.82
2018-07-06T14:48:22.185Z,69.31
2018-07-06T14:49:32.039Z,68.62
2018-07-06T14:50:41.892Z,68.82
2018-07-06T14:51:51.962Z,68.26
2018-07-06T14:53:01.775Z,68.46
2018-07-06T14:54:11.867Z,68.65
2018-07-06T14:55:21.425Z,68.55
2018-07-06T14:56:31.263Z,68.95
2018-07-06T14:57:41.139Z,69.15
2018-07-06T14:58:51.217Z,69.34
2018-07-06T15:00:01.055Z,69.05
2018-07-06T15:01:11.143Z,69.34
2018-07-06T15:02:21.242Z,69.24
2018-07-06T15:03:31.323Z,68.95
2018-07-06T15:04:41.405Z,68.75
2018-07-06T15:05:51.484Z,68.85
2018-07-06T15:07:01.757Z,68.36
2018-07-06T15:08:11.688Z,68.26
2018-07-06T15:09:21.992Z,68.55
2018-07-06T15:10:32.068Z,68.36
2018-07-06T15:11:42.353Z,68.26
2018-07-06T15:12:52.523Z,68.95
2018-07-06T15:14:02.840Z,68.95
2018-07-06T15:15:12.713Z,68.85
2018-07-06T15:16:22.805Z,68.3
2018-07-06T15:17:32.612Z,69.44
2018-07-06T15:18:42.773Z,69.47
2018-07-06T15:19:52.875Z,68.69
2018-07-06T15:21:02.956Z,68.75
2018-07-06T15:22:13.044Z,68.88
2018-07-06T15:23:23.126Z,68.98
2018-07-06T15:24:33.224Z,68.49
2018-07-06T15:25:43.301Z,69.02
2018-07-06T15:26:53.114Z,68.52
2018-07-06T15:28:03.196Z,69.05
2018-07-06T15:29:13.262Z,68.26
2018-07-06T15:30:23.384Z,68.69
2018-07-06T15:31:33.460Z,68.01
2018-07-06T15:32:43.612Z,68.2
2018-07-06T15:33:53.679Z,68.23
2018-07-06T15:35:03.820Z,68.59